Airfield :
LOGIN :

Register | Disclaimer

   EN    FR    IT 

 










Legend :    VFR   Marginal VFR   IFR   Intensive IFR   Very Intensive IFR
Visi :
Ceiling :
>= 8 km
>= 3000ft
5 to 8 km
1000 to 3000 ft
1500m to 5 km
500 to 1000 ft
800 to 1500m
200 to 500 ft
< 800m
< 200 ft
Symbols :   Thunderstorms  Fog  Heavy snow  Heavy precipitations  Wind > 20 kt
SIGMETs :     Misc.  Thunderstorms  Icing  Turbulence  Mountain Waves  Volcanic Ashes






- Airport Elevation : 19 ft
- IATA code : LCY


EGLC - London City

CURRENT METAR :
  • 242320Z AUTO 24010KT 9999 FEW019 18/13 Q1016

EXPIRED METARs :
  • 242250Z AUTO 24012KT 9999 FEW021 18/13 Q1017
  • 242220Z AUTO 22010KT 9999 FEW022 18/13 Q1017
  • 242150Z AUTO 22010KT 9999 NCD 18/13 Q1017
  • 242120Z AUTO 22009KT 9999 NCD 18/13 Q1017
  • 242050Z AUTO 22010KT 9999 NCD 19/12 Q1017
  • 242020Z AUTO 22010KT 190V250 9999 NCD 19/12 Q1017
  • 241950Z AUTO 22011KT 9999 NCD 19/13 Q1017
  • 241920Z AUTO 21010KT 9999 -RA NCD 20/13 Q1017
  • 241850Z AUTO VRB07KT 9999 NCD 21/13 Q1017

Expired Forecast.
ATIS : +44 20 7646 0224



MET'MAP, your aeronautical weather chart ! - Copyright ORBIFLY December 2007 - Disclaimer

ORBIFLY MET'MAP TEAM :

Programming & Development : Alexandra Zaïnal
Original concept : Baudouin d'Aumeries
Technical & hardware support : Manuel Goepfert
Assistance : Marc-Olivier Méhu




SOURCES & CREDITS :

   NOAA